Terminal Aerodrome Forecast
Issued by NWS

Home | Current Version | Previous Version | Text Only | Print | Product List | Glossary On
Versions: 1 2 3 4 5 6 7 8 9 10 11 12 13 14 15 16 17 18 19 20 21 22 23 24 25 26 27 28 29 30 31 32 33 34 35 36 37 38 39 40 41 42 43 44 45 46
000
FTUS43 KMKX 191905 AAA
TAFUES
TAF AMD
KUES 191905Z 1919/2018 07006KT 2SM -RA BR OVC003
      TEMPO 1919/1923 1/2SM -RA FG OVC005
     FM192300 06007KT 1/2SM RA FG VCTS OVC003CB
     FM200400 VRB04KT 1/2SM RA FG VCTS OVC003CB
     FM201200 VRB03KT 1SM RA BR OVC003 WS020/21035KT
     FM201700 21005KT 1SM RA BR OVC008=

USA.gov is the U.S. government's official web portal to all federal, state and local government web resources and services.